Time;durP1;ratioP1;P1;durP2;ratioP2;P2;SDS_P1;SDS_P2;PMS_P1;PMS_P2;Temp;Humidity;BMP_temperature;BMP_pressure;BME280_temperature;BME280_humidity;BME280_pressure;Samples;Min_cycle;Max_cycle;Signal;HPM_P1;HPM_P2
2022/07/21 00:00:14;;;;;;;;;;;24.00;99.90;;;;;;4825283;29;20118;-79
2022/07/21 00:02:39;;;;;;;15.20;7.35;;;24.00;99.90;;;;;;4825032;29;20377;-80
2022/07/21 00:05:06;;;;;;;11.95;7.05;;;23.90;99.90;;;;;;4824308;29;20121;-79
2022/07/21 00:07:31;;;;;;;17.40;7.63;;;23.90;99.90;;;;;;4824823;29;20076;-79
2022/07/21 00:09:57;;;;;;;12.15;6.47;;;23.80;99.90;;;;;;4824612;29;20076;-79
2022/07/21 00:12:23;;;;;;;13.32;6.40;;;23.80;99.90;;;;;;4824866;29;20061;-79
2022/07/21 00:14:48;;;;;;;12.57;7.15;;;23.80;99.90;;;;;;4824038;29;20066;-79
2022/07/21 00:17:14;;;;;;;10.52;5.65;;;23.80;99.90;;;;;;4824337;29;20038;-79
2022/07/21 00:19:40;;;;;;;14.13;6.93;;;23.70;99.90;;;;;;4824909;29;20038;-79
2022/07/21 00:22:05;;;;;;;14.02;6.43;;;23.70;99.90;;;;;;4824392;29;20086;-80
2022/07/21 00:24:31;;;;;;;14.55;6.22;;;23.70;99.90;;;;;;4824986;29;20072;-80
2022/07/21 00:26:57;;;;;;;16.05;6.72;;;23.60;99.90;;;;;;4838311;29;20070;-79
2022/07/21 00:29:22;;;;;;;12.18;5.78;;;23.60;99.90;;;;;;4824735;29;20520;-79
2022/07/21 00:31:48;;;;;;;11.55;6.03;;;23.60;99.90;;;;;;4823835;29;20041;-79
2022/07/21 00:34:14;;;;;;;14.82;5.90;;;23.50;99.90;;;;;;4824777;29;20030;-80
2022/07/21 00:36:40;;;;;;;10.82;5.85;;;23.50;99.90;;;;;;4824488;29;20071;-79
2022/07/21 00:39:05;;;;;;;9.13;5.43;;;23.50;99.90;;;;;;4824233;29;20027;-80
2022/07/21 00:41:31;;;;;;;14.75;5.88;;;23.50;99.90;;;;;;4824335;29;20035;-80
2022/07/21 00:43:57;;;;;;;14.32;5.95;;;23.50;99.90;;;;;;4824359;29;20034;-79
2022/07/21 00:46:22;;;;;;;13.20;5.47;;;23.40;99.90;;;;;;4823751;29;20046;-79
2022/07/21 00:48:48;;;;;;;12.77;5.68;;;23.40;99.90;;;;;;4824400;29;20103;-79
2022/07/21 00:51:14;;;;;;;13.48;5.75;;;23.40;99.90;;;;;;4824152;29;20018;-79
2022/07/21 00:53:40;;;;;;;12.60;6.00;;;23.30;99.90;;;;;;4840654;29;20028;-79
2022/07/21 00:56:06;;;;;;;9.18;5.60;;;23.30;99.90;;;;;;4826744;29;20079;-79
2022/07/21 00:58:32;;;;;;;10.30;6.47;;;23.30;99.90;;;;;;4831984;29;20398;-80
2022/07/21 01:00:57;;;;;;;14.05;6.43;;;23.20;99.90;;;;;;4841798;29;20038;-79
2022/07/21 01:03:23;;;;;;;14.98;6.70;;;23.10;99.90;;;;;;4842261;29;20093;-79
2022/07/21 01:05:49;;;;;;;7.90;5.03;;;23.10;99.90;;;;;;4842674;29;20061;-80
2022/07/21 01:08:15;;;;;;;10.35;5.80;;;23.10;99.90;;;;;;4832531;29;20034;-79
2022/07/21 01:10:40;;;;;;;12.77;6.00;;;23.10;99.90;;;;;;4837814;29;20456;-80
2022/07/21 01:13:06;;;;;;;14.55;6.20;;;23.00;99.90;;;;;;4837610;29;20495;-79
2022/07/21 01:15:32;;;;;;;9.63;5.72;;;23.00;99.90;;;;;;4824024;29;20086;-79
2022/07/21 01:17:58;;;;;;;10.27;5.90;;;23.00;99.90;;;;;;4823873;29;20042;-79
2022/07/21 01:20:24;;;;;;;11.68;5.80;;;22.90;99.90;;;;;;4823723;29;20030;-79
2022/07/21 01:22:53;;;;;;;13.25;6.30;;;22.90;99.90;;;;;;4824118;29;20579;-79
2022/07/21 01:25:20;;;;;;;8.48;5.03;;;22.90;99.90;;;;;;4823392;29;20041;-79
2022/07/21 01:27:46;;;;;;;12.27;5.95;;;22.90;99.90;;;;;;4823422;29;20034;-79
2022/07/21 01:30:12;;;;;;;11.20;5.53;;;22.70;99.90;;;;;;4837268;29;20026;-79
2022/07/21 01:32:39;;;;;;;10.68;5.68;;;22.70;99.90;;;;;;4823444;29;20057;-79
2022/07/21 01:35:07;;;;;;;12.25;6.07;;;22.70;99.90;;;;;;4823287;29;20030;-79
2022/07/21 01:37:39;;;;;;;8.63;5.50;;;22.60;99.90;;;;;;4823694;29;20499;-79
2022/07/21 01:42:51;;;;;;;13.98;5.72;;;22.60;99.90;;;;;;4824052;29;20114;-79
2022/07/21 01:45:17;;;;;;;9.90;5.50;;;22.50;99.90;;;;;;4831912;29;20053;-79
2022/07/21 01:47:43;;;;;;;11.73;5.60;;;22.50;99.90;;;;;;4838777;29;20041;-79
2022/07/21 01:50:10;;;;;;;12.80;5.10;;;22.50;99.90;;;;;;4823605;29;20041;-79
2022/07/21 01:52:35;;;;;;;7.10;4.68;;;22.40;99.90;;;;;;4822260;29;20038;-80
2022/07/21 01:55:01;;;;;;;13.00;5.25;;;22.40;99.90;;;;;;4823355;29;20026;-79
2022/07/21 01:57:27;;;;;;;10.95;5.57;;;22.40;99.90;;;;;;4823631;29;20058;-79
2022/07/21 01:59:52;;;;;;;10.40;4.93;;;22.40;99.90;;;;;;4822560;29;20037;-79
2022/07/21 02:02:20;;;;;;;11.20;5.00;;;22.30;99.90;;;;;;4837226;29;20065;-79
2022/07/21 02:04:47;;;;;;;8.95;5.03;;;22.30;99.90;;;;;;4823127;29;20407;-79
2022/07/21 02:07:13;;;;;;;10.07;4.85;;;22.30;99.90;;;;;;4823228;29;20043;-79
2022/07/21 02:09:39;;;;;;;8.57;4.97;;;22.30;99.90;;;;;;4822861;29;20106;-79
2022/07/21 02:12:05;;;;;;;11.93;4.85;;;22.30;99.90;;;;;;4823547;29;20030;-79
2022/07/21 02:14:32;;;;;;;12.70;4.53;;;22.30;99.90;;;;;;4836543;29;20103;-79
2022/07/21 02:16:57;;;;;;;13.70;4.80;;;22.30;99.90;;;;;;4836967;29;20026;-79
2022/07/21 02:19:23;;;;;;;10.43;4.35;;;22.20;99.90;;;;;;4822906;29;20037;-79
2022/07/21 02:21:49;;;;;;;12.43;5.18;;;22.20;99.90;;;;;;4823408;29;20027;-80
2022/07/21 02:24:14;;;;;;;11.52;5.25;;;22.20;99.90;;;;;;4822922;29;20543;-80
2022/07/21 02:26:40;;;;;;;16.05;4.88;;;22.20;99.90;;;;;;4836981;29;20436;-79
2022/07/21 02:29:06;;;;;;;8.75;4.25;;;22.10;99.90;;;;;;4822698;29;20439;-79
2022/07/21 02:31:33;;;;;;;10.68;4.00;;;22.00;99.90;;;;;;4836651;29;20083;-79
2022/07/21 02:33:59;;;;;;;14.90;4.22;;;22.00;99.90;;;;;;4822763;29;20026;-79
2022/07/21 02:36:24;;;;;;;11.02;4.32;;;22.00;99.90;;;;;;4822600;29;20037;-79
2022/07/21 02:38:50;;;;;;;8.70;3.78;;;22.00;99.90;;;;;;4824488;29;20042;-80
2022/07/21 02:41:16;;;;;;;8.45;3.90;;;22.00;99.90;;;;;;4826421;29;20075;-79
2022/07/21 02:43:42;;;;;;;9.95;3.95;;;22.00;99.90;;;;;;4826450;29;20121;-79
2022/07/21 02:46:08;;;;;;;8.55;3.60;;;21.90;99.90;;;;;;4826064;29;20133;-80
2022/07/21 02:48:34;;;;;;;7.75;3.60;;;21.90;99.90;;;;;;4826201;29;20042;-79
2022/07/21 02:50:59;;;;;;;8.52;3.95;;;21.90;99.90;;;;;;4826120;29;20074;-79
2022/07/21 02:53:25;;;;;;;13.13;4.70;;;21.80;99.90;;;;;;4826317;29;20034;-79
2022/07/21 02:55:52;;;;;;;11.73;4.10;;;21.80;99.90;;;;;;4826289;29;20042;-80
2022/07/21 02:58:23;;;;;;;10.43;4.70;;;21.70;99.90;;;;;;4825061;29;20573;-79
2022/07/21 03:00:52;;;;;;;14.10;5.00;;;21.70;99.90;;;;;;4826022;29;20038;-79
2022/07/21 03:03:17;;;;;;;9.27;5.10;;;21.70;99.90;;;;;;4825773;29;20071;-79
2022/07/21 03:05:43;;;;;;;9.80;4.03;;;21.60;99.90;;;;;;4824938;29;20116;-79
2022/07/21 03:08:10;;;;;;;9.00;4.63;;;21.60;99.90;;;;;;4825774;29;20046;-79
2022/07/21 03:10:37;;;;;;;9.70;4.20;;;21.60;99.90;;;;;;4824314;29;20115;-79
2022/07/21 03:13:04;;;;;;;9.75;4.22;;;21.70;99.90;;;;;;4826132;29;20395;-80
2022/07/21 03:15:29;;;;;;;9.25;4.55;;;21.60;99.90;;;;;;4825572;29;20027;-79
2022/07/21 03:17:56;;;;;;;12.60;4.15;;;21.60;99.90;;;;;;4825773;29;20040;-79
2022/07/21 03:20:26;;;;;;;9.23;3.80;;;21.70;99.90;;;;;;4825657;29;20095;-79
2022/07/21 03:22:52;;;;;;;13.52;4.35;;;21.60;99.90;;;;;;4825558;29;20042;-79
2022/07/21 03:25:18;;;;;;;7.95;4.22;;;21.60;99.90;;;;;;4825242;29;20034;-79
2022/07/21 03:27:44;;;;;;;10.68;4.45;;;21.50;99.90;;;;;;4839756;29;20495;-79
2022/07/21 03:30:11;;;;;;;9.45;3.45;;;21.50;99.90;;;;;;4825524;29;20043;-79
2022/07/21 03:32:37;;;;;;;6.50;4.10;;;21.40;99.90;;;;;;4825381;29;20113;-80
2022/07/21 03:35:04;;;;;;;9.48;4.00;;;21.40;99.90;;;;;;4825770;29;20061;-79
2022/07/21 03:37:30;;;;;;;11.02;4.30;;;21.40;99.90;;;;;;4824764;29;20114;-80
2022/07/21 03:39:56;;;;;;;8.70;4.07;;;21.30;99.90;;;;;;4825354;29;20483;-79
2022/07/21 03:42:22;;;;;;;11.40;4.10;;;21.30;99.90;;;;;;4824112;29;20073;-79
2022/07/21 03:44:47;;;;;;;9.00;3.88;;;21.30;99.90;;;;;;4825135;29;20031;-80
2022/07/21 03:47:14;;;;;;;8.48;3.88;;;21.30;99.90;;;;;;4825101;29;20545;-79
2022/07/21 03:49:39;;;;;;;11.30;4.20;;;21.30;99.90;;;;;;4824610;29;20027;-79
2022/07/21 03:52:05;;;;;;;9.40;3.85;;;21.20;99.90;;;;;;4824710;29;20098;-79
2022/07/21 03:54:31;;;;;;;8.20;3.63;;;21.20;99.90;;;;;;4841988;29;20461;-80
2022/07/21 03:56:56;;;;;;;9.50;4.20;;;21.20;99.90;;;;;;4843549;29;20030;-80
2022/07/21 03:59:22;;;;;;;8.90;3.38;;;21.20;99.90;;;;;;4843309;29;20026;-79
2022/07/21 04:01:47;;;;;;;8.05;4.10;;;21.10;99.90;;;;;;4840330;29;20045;-79
2022/07/21 04:04:13;;;;;;;5.90;3.60;;;21.20;99.90;;;;;;4824800;29;20499;-80
2022/07/21 04:06:39;;;;;;;11.90;4.45;;;21.10;99.90;;;;;;4824781;29;20037;-79
2022/07/21 04:09:04;;;;;;;9.65;3.65;;;21.10;99.90;;;;;;4824495;29;20114;-79
2022/07/21 04:11:31;;;;;;;7.68;3.92;;;21.10;99.90;;;;;;4824652;29;20057;-79
2022/07/21 04:13:57;;;;;;;13.93;4.28;;;21.10;99.90;;;;;;4824763;29;20388;-78
2022/07/21 04:16:23;;;;;;;8.63;3.78;;;21.00;99.90;;;;;;4824685;29;20030;-75
2022/07/21 04:18:48;;;;;;;7.15;3.58;;;21.00;99.90;;;;;;4824773;29;20033;-75
2022/07/21 04:21:14;;;;;;;9.77;3.75;;;21.00;99.90;;;;;;4824378;29;20047;-74
2022/07/21 04:23:40;;;;;;;9.20;3.90;;;21.00;99.90;;;;;;4824266;29;20509;-74
2022/07/21 04:26:06;;;;;;;11.27;3.85;;;21.00;99.90;;;;;;4824674;29;20086;-74
2022/07/21 04:28:31;;;;;;;6.28;3.58;;;20.90;99.90;;;;;;4824622;29;20035;-74
2022/07/21 04:30:57;;;;;;;6.88;3.35;;;20.90;99.90;;;;;;4824701;29;20114;-75
2022/07/21 04:33:23;;;;;;;9.70;3.55;;;20.90;99.90;;;;;;4838677;29;20033;-75
2022/07/21 04:35:48;;;;;;;6.57;3.17;;;20.90;99.90;;;;;;4824362;29;20038;-75
2022/07/21 04:38:14;;;;;;;6.22;3.30;;;20.80;99.90;;;;;;4824300;29;20030;-79
2022/07/21 04:40:40;;;;;;;10.85;3.58;;;20.80;99.90;;;;;;4824676;29;20035;-79
2022/07/21 04:43:06;;;;;;;18.38;3.85;;;20.80;99.90;;;;;;4823191;29;20526;-78
2022/07/21 04:45:32;;;;;;;9.52;3.55;;;20.80;99.90;;;;;;4823221;29;20137;-78
2022/07/21 04:47:58;;;;;;;7.57;3.42;;;20.80;99.90;;;;;;4823840;29;20026;-78
2022/07/21 04:50:26;;;;;;;10.18;3.60;;;20.80;99.90;;;;;;4824071;29;20026;-78
2022/07/21 04:52:52;;;;;;;15.05;4.40;;;20.80;99.90;;;;;;4823790;29;20105;-78
2022/07/21 04:55:19;;;;;;;7.10;3.08;;;20.80;99.90;;;;;;4835970;29;20034;-78
2022/07/21 04:57:47;;;;;;;10.23;3.38;;;20.80;99.90;;;;;;4834049;29;20483;-78
2022/07/21 05:00:19;;;;;;;11.25;3.75;;;20.80;99.90;;;;;;4824521;29;20038;-78
2022/07/21 05:02:46;;;;;;;7.00;3.40;;;20.80;99.90;;;;;;4823292;29;20058;-78
2022/07/21 05:05:12;;;;;;;7.30;3.40;;;20.80;99.90;;;;;;4822854;29;20079;-78
2022/07/21 05:07:39;;;;;;;7.13;3.50;;;20.80;99.90;;;;;;4823739;29;20445;-78
2022/07/21 05:10:06;;;;;;;8.85;3.20;;;20.80;99.90;;;;;;4824067;29;20026;-78
2022/07/21 05:12:32;;;;;;;12.60;3.33;;;20.80;99.90;;;;;;4824014;29;20075;-79
2022/07/21 05:14:57;;;;;;;6.20;3.10;;;20.90;99.90;;;;;;4824541;29;20448;-78
2022/07/21 05:17:23;;;;;;;6.07;2.90;;;20.90;99.90;;;;;;4823597;29;20030;-79
2022/07/21 05:19:50;;;;;;;8.98;3.13;;;20.90;99.90;;;;;;4837509;29;20390;-79
2022/07/21 05:22:16;;;;;;;10.77;2.88;;;20.90;99.90;;;;;;4841804;29;20411;-79
2022/07/21 05:24:42;;;;;;;11.65;3.00;;;21.00;99.90;;;;;;4841949;29;20026;-78
2022/07/21 05:27:08;;;;;;;6.60;2.78;;;20.90;99.90;;;;;;4841801;29;20029;-78
2022/07/21 05:29:34;;;;;;;13.25;3.22;;;20.90;99.90;;;;;;4838380;29;20039;-78
2022/07/21 05:31:59;;;;;;;8.88;3.15;;;20.90;99.90;;;;;;4823562;29;20049;-78
2022/07/21 05:34:25;;;;;;;10.07;3.28;;;21.00;99.90;;;;;;4823746;29;20030;-79
2022/07/21 05:36:51;;;;;;;10.43;3.10;;;21.00;99.90;;;;;;4823361;29;20031;-79
2022/07/21 05:39:16;;;;;;;8.27;3.05;;;21.00;99.90;;;;;;4823631;29;20407;-79
2022/07/21 05:41:42;;;;;;;9.35;3.42;;;21.10;99.90;;;;;;4823532;29;20491;-78
2022/07/21 05:44:08;;;;;;;11.25;3.42;;;21.10;99.90;;;;;;4823918;29;20038;-78
2022/07/21 05:46:33;;;;;;;7.78;2.88;;;21.10;99.90;;;;;;4834168;29;20427;-78
2022/07/21 05:48:59;;;;;;;13.95;3.53;;;21.10;99.90;;;;;;4823051;29;20049;-78
2022/07/21 05:51:24;;;;;;;10.73;3.67;;;21.10;99.90;;;;;;4823159;29;20034;-79
2022/07/21 05:53:50;;;;;;;6.20;2.78;;;21.20;99.90;;;;;;4823411;29;20037;-78
2022/07/21 05:56:16;;;;;;;9.02;3.53;;;21.30;99.90;;;;;;4823628;29;20026;-79
2022/07/21 05:58:41;;;;;;;15.25;3.80;;;21.20;99.90;;;;;;4823435;29;20056;-79
2022/07/21 06:01:13;;;;;;;11.88;3.55;;;21.20;99.90;;;;;;4823339;29;20081;-79
2022/07/21 06:03:48;;;;;;;9.65;4.00;;;21.20;99.90;;;;;;4823414;29;20487;-78
2022/07/21 06:06:16;;;;;;;25.38;3.63;;;21.30;99.90;;;;;;4823213;29;20361;-79
2022/07/21 06:08:43;;;;;;;10.65;3.50;;;21.40;99.90;;;;;;4823438;29;20022;-78
2022/07/21 06:11:11;;;;;;;9.68;3.15;;;21.40;99.90;;;;;;4823446;29;20031;-78
2022/07/21 06:13:37;;;;;;;12.38;3.28;;;21.30;99.90;;;;;;4823212;29;20031;-79
2022/07/21 06:16:04;;;;;;;11.10;3.53;;;21.30;99.90;;;;;;4823260;29;20566;-78
2022/07/21 06:18:29;;;;;;;13.30;4.03;;;21.30;99.90;;;;;;4837208;29;20037;-79
2022/07/21 06:20:55;;;;;;;15.38;3.80;;;21.40;99.90;;;;;;4822930;29;20399;-79
2022/07/21 06:23:21;;;;;;;8.45;3.08;;;21.50;99.90;;;;;;4836484;29;20406;-78
2022/07/21 06:25:47;;;;;;;10.52;3.45;;;21.50;99.90;;;;;;4823229;29;20391;-78
2022/07/21 06:28:13;;;;;;;11.80;3.30;;;21.50;99.90;;;;;;4833972;29;20090;-79
2022/07/21 06:30:40;;;;;;;14.65;3.13;;;21.50;99.90;;;;;;4823199;29;20030;-79
2022/07/21 06:33:05;;;;;;;9.57;3.58;;;21.50;99.90;;;;;;4823038;29;20034;-78
2022/07/21 06:35:31;;;;;;;9.88;3.35;;;21.60;99.90;;;;;;4822565;29;20518;-78
2022/07/21 06:37:57;;;;;;;10.02;3.45;;;21.60;99.90;;;;;;4822617;29;20042;-78
2022/07/21 06:40:23;;;;;;;11.88;3.00;;;21.60;99.90;;;;;;4823454;29;20035;-79
2022/07/21 06:42:49;;;;;;;13.48;3.20;;;21.70;99.90;;;;;;4822789;29;20038;-79
2022/07/21 06:45:14;;;;;;;9.23;3.22;;;21.70;99.90;;;;;;4822438;29;20053;-79
2022/07/21 06:47:40;;;;;;;10.85;3.63;;;21.70;99.90;;;;;;4822574;29;20039;-79
2022/07/21 06:50:07;;;;;;;10.65;3.10;;;21.80;99.90;;;;;;4822468;29;20023;-78
2022/07/21 06:52:35;;;;;;;10.77;3.45;;;21.90;99.90;;;;;;4822612;29;20041;-79
2022/07/21 06:55:01;;;;;;;8.75;3.17;;;21.90;99.90;;;;;;4823107;29;20045;-79
2022/07/21 06:57:27;;;;;;;8.82;3.55;;;22.00;99.90;;;;;;4822749;29;20053;-79
2022/07/21 06:59:52;;;;;;;11.15;3.80;;;22.10;99.90;;;;;;4822535;29;20487;-79
2022/07/21 07:02:18;;;;;;;11.05;3.10;;;22.10;99.90;;;;;;4823281;29;20105;-78
2022/07/21 07:04:43;;;;;;;9.73;3.17;;;22.10;99.90;;;;;;4836285;29;20030;-79
2022/07/21 07:07:10;;;;;;;12.57;3.10;;;22.10;99.90;;;;;;4837062;29;20054;-79
2022/07/21 07:09:36;;;;;;;10.10;3.70;;;22.10;99.90;;;;;;4840959;29;20029;-79
2022/07/21 07:12:05;;;;;;;6.22;2.65;;;22.20;99.90;;;;;;4840436;29;20042;-79
2022/07/21 07:14:32;;;;;;;8.05;3.72;;;22.30;99.90;;;;;;4832869;29;20019;-79
2022/07/21 07:16:58;;;;;;;10.40;3.40;;;22.40;99.90;;;;;;4836342;29;20026;-79
2022/07/21 07:19:24;;;;;;;8.43;3.22;;;22.40;99.90;;;;;;4822889;29;20050;-79
2022/07/21 07:21:50;;;;;;;8.02;3.08;;;22.50;99.90;;;;;;4821928;29;20495;-78
2022/07/21 07:24:16;;;;;;;8.05;2.80;;;22.50;99.90;;;;;;4823100;29;20066;-79
2022/07/21 07:26:42;;;;;;;13.90;3.38;;;22.60;99.90;;;;;;4825325;29;20030;-79
2022/07/21 07:29:08;;;;;;;18.02;3.97;;;22.70;99.90;;;;;;4826226;29;20110;-79
2022/07/21 07:31:34;;;;;;;13.50;2.90;;;22.90;99.90;;;;;;4825270;29;20031;-79
2022/07/21 07:34:00;;;;;;;11.05;3.60;;;22.80;99.90;;;;;;4825443;29;20026;-79
2022/07/21 07:36:27;;;;;;;7.32;3.33;;;23.00;99.90;;;;;;4839800;29;20030;-79
2022/07/21 07:38:53;;;;;;;11.48;3.42;;;23.00;99.90;;;;;;4825398;29;20062;-79
2022/07/21 07:41:20;;;;;;;12.07;3.20;;;23.10;99.90;;;;;;4825199;29;20045;-79
2022/07/21 07:43:46;;;;;;;10.32;2.83;;;23.00;99.90;;;;;;4825455;29;20172;-79
2022/07/21 07:46:12;;;;;;;9.65;3.40;;;23.10;99.90;;;;;;4824241;29;20058;-80
2022/07/21 07:48:38;;;;;;;13.80;3.85;;;23.20;99.90;;;;;;4825510;29;20030;-80
2022/07/21 07:51:04;;;;;;;6.95;3.03;;;23.30;99.90;;;;;;4825252;29;20026;-80
2022/07/21 07:53:30;;;;;;;16.27;3.72;;;23.30;99.90;;;;;;4825272;29;20487;-85
2022/07/21 07:55:55;;;;;;;11.50;3.35;;;23.40;99.90;;;;;;4823484;29;20019;-83
2022/07/21 07:58:21;;;;;;;12.25;3.25;;;23.50;99.90;;;;;;4823936;29;20538;-83
2022/07/21 08:00:47;;;;;;;8.40;3.00;;;23.60;99.90;;;;;;4834583;29;20108;-83
2022/07/21 08:03:13;;;;;;;12.00;3.38;;;23.80;99.90;;;;;;4826568;29;20034;-84
2022/07/21 08:05:39;;;;;;;10.40;3.08;;;23.90;99.90;;;;;;4811753;29;20050;-84
2022/07/21 08:08:04;;;;;;;6.35;3.03;;;24.00;99.90;;;;;;4806618;29;20034;-85
2022/07/21 08:10:30;;;;;;;6.25;3.13;;;24.20;99.90;;;;;;4807123;29;20030;-82
2022/07/21 08:12:56;;;;;;;10.90;3.25;;;24.30;99.90;;;;;;4809396;29;20026;-84
2022/07/21 08:15:22;;;;;;;14.60;3.40;;;24.50;99.90;;;;;;4849851;29;20034;-84
2022/07/21 08:17:47;;;;;;;11.07;3.33;;;24.70;99.90;;;;;;4804977;29;20031;-84
2022/07/21 08:20:13;;;;;;;12.35;3.35;;;24.80;99.90;;;;;;4809879;29;20495;-80
2022/07/21 08:22:39;;;;;;;8.85;3.20;;;25.00;99.90;;;;;;4807692;29;20026;-75
2022/07/21 08:25:05;;;;;;;6.95;3.38;;;25.20;99.90;;;;;;4818990;29;20501;-75
2022/07/21 08:27:30;;;;;;;8.50;3.08;;;25.40;99.00;;;;;;4822629;29;20045;-75
2022/07/21 08:29:56;;;;;;;10.32;3.72;;;25.40;98.60;;;;;;4812371;29;20543;-75
2022/07/21 08:32:23;;;;;;;8.18;2.90;;;25.70;99.00;;;;;;4820409;29;20088;-76
2022/07/21 08:34:48;;;;;;;8.02;3.10;;;26.00;97.90;;;;;;4812483;29;20045;-76
2022/07/21 08:37:14;;;;;;;7.97;3.33;;;26.30;96.30;;;;;;4816481;29;20023;-76
2022/07/21 08:39:40;;;;;;;8.75;3.50;;;26.60;95.60;;;;;;4836992;29;20035;-76
2022/07/21 08:42:10;;;;;;;9.65;2.95;;;26.80;94.50;;;;;;4811554;29;20027;-76
2022/07/21 08:44:37;;;;;;;7.43;3.30;;;27.00;94.20;;;;;;4838619;29;20384;-76
2022/07/21 08:47:04;;;;;;;12.02;3.55;;;27.20;93.50;;;;;;4817001;29;20047;-85
2022/07/21 08:49:33;;;;;;;7.63;3.25;;;27.30;93.00;;;;;;4807247;29;20038;-84
2022/07/21 08:51:58;;;;;;;8.52;3.10;;;27.30;93.30;;;;;;4814696;29;20058;-84
2022/07/21 08:54:24;;;;;;;9.80;3.00;;;27.90;91.60;;;;;;4813464;29;20472;-83
2022/07/21 08:56:50;;;;;;;12.02;3.38;;;28.00;90.60;;;;;;4814444;29;20559;-83
2022/07/21 08:59:16;;;;;;;7.80;3.30;;;28.20;89.70;;;;;;4817214;29;20555;-84
2022/07/21 09:01:41;;;;;;;8.07;3.47;;;28.30;88.00;;;;;;4822537;29;20034;-83
2022/07/21 09:04:24;;;;;;;12.30;3.40;;;28.50;89.30;;;;;;4817137;29;20081;-84
2022/07/21 09:06:52;;;;;;;10.02;3.03;;;28.80;85.60;;;;;;4814192;29;20027;-84
2022/07/21 09:09:20;;;;;;;8.40;3.85;;;28.80;84.90;;;;;;4837341;29;20037;-85
2022/07/21 09:11:46;;;;;;;8.25;3.13;;;28.80;82.00;;;;;;4816568;29;20361;-85
2022/07/21 09:14:18;;;;;;;6.50;3.05;;;28.80;83.20;;;;;;4823193;29;20086;-81
2022/07/21 09:16:47;;;;;;;9.60;3.03;;;29.10;82.60;;;;;;4822854;29;20511;-86
2022/07/21 09:19:23;;;;;;;6.65;3.28;;;29.30;81.90;;;;;;4822083;29;20042;-85
2022/07/21 09:21:51;;;;;;;8.07;3.65;;;29.50;81.30;;;;;;4848328;29;20121;-85
2022/07/21 09:24:18;;;;;;;7.90;3.40;;;29.30;80.10;;;;;;4851743;29;20030;-81
2022/07/21 09:27:01;;;;;;;9.40;3.15;;;29.40;80.00;;;;;;4826974;29;20022;-85
2022/07/21 09:29:43;;;;;;;12.38;4.03;;;29.50;78.60;;;;;;4824292;29;20057;-84
2022/07/21 09:32:17;;;;;;;11.50;3.42;;;29.50;79.10;;;;;;4816129;29;20069;-84
2022/07/21 09:34:43;;;;;;;10.90;3.15;;;29.70;79.70;;;;;;4828382;29;20035;-85
2022/07/21 10:14:15;;;;;;;8.23;3.25;;;31.00;70.10;;;;;;5623870;24;19933;-77
2022/07/21 10:16:40;;;;;;;8.95;4.00;;;31.00;71.10;;;;;;4841222;29;20030;-74
2022/07/21 10:19:16;;;;;;;11.55;3.58;;;30.80;70.90;;;;;;4840306;29;20026;-77
2022/07/21 10:22:08;;;;;;;6.82;3.10;;;30.80;69.70;;;;;;4841197;29;20046;-78
2022/07/21 10:24:33;;;;;;;;;;;30.80;69.70;;;;;;4840488;29;20024;-78
2022/07/21 10:27:05;;;;;;;8.68;3.88;;;30.80;70.10;;;;;;4840129;29;19913;-77
2022/07/21 10:29:52;;;;;;;8.98;3.88;;;30.50;69.10;;;;;;4840889;29;20056;-77
2022/07/21 10:32:21;;;;;;;6.78;3.38;;;30.70;70.70;;;;;;4833628;29;20098;-77
2022/07/21 10:34:48;;;;;;;7.07;3.45;;;30.90;68.70;;;;;;4840760;29;20029;-77
2022/07/21 10:37:39;;;;;;;6.03;3.58;;;31.00;68.50;;;;;;4840901;29;20022;-77
2022/07/21 10:40:25;;;;;;;12.60;3.47;;;31.10;68.40;;;;;;4844804;29;20030;-76
2022/07/21 10:43:00;;;;;;;9.07;4.13;;;31.30;68.40;;;;;;4839966;29;20034;-77
2022/07/21 10:45:37;;;;;;;8.25;3.70;;;31.40;67.90;;;;;;4840703;29;20034;-77
2022/07/21 10:48:08;;;;;;;8.82;3.50;;;31.50;67.50;;;;;;4840491;29;20117;-77
2022/07/21 10:50:33;;;;;;;8.60;3.47;;;31.50;67.30;;;;;;4840833;29;20094;-76
2022/07/21 10:53:16;;;;;;;6.80;3.65;;;31.60;67.00;;;;;;4840266;29;20294;-77
2022/07/21 10:55:50;;;;;;;7.93;3.70;;;31.40;65.50;;;;;;4839730;29;20030;-76
2022/07/21 10:58:40;;;;;;;7.95;3.63;;;31.70;65.50;;;;;;4840591;29;20034;-76
2022/07/21 11:01:19;;;;;;;11.25;3.80;;;31.70;65.20;;;;;;4841406;29;20026;-76
2022/07/21 11:03:45;;;;;;;7.32;3.47;;;31.30;65.20;;;;;;4844479;29;20037;-77
2022/07/21 11:06:22;;;;;;;7.78;3.63;;;31.10;68.10;;;;;;4843434;29;20029;-77
2022/07/21 11:09:04;;;;;;;5.97;3.45;;;31.70;65.10;;;;;;4843803;29;20050;-75
2022/07/21 11:11:58;;;;;;;10.25;4.05;;;31.50;64.60;;;;;;4845552;29;20463;-79
2022/07/21 11:14:44;;;;;;;5.07;3.20;;;31.20;65.50;;;;;;4840669;29;20061;-76
2022/07/21 11:17:35;;;;;;;8.18;3.47;;;31.20;68.50;;;;;;4821726;29;20022;-75
2022/07/21 11:20:11;;;;;;;7.53;3.93;;;31.60;65.50;;;;;;4828707;29;20062;-75
2022/07/21 11:22:37;;;;;;;8.02;3.33;;;32.00;63.80;;;;;;4823829;29;20355;-74
2022/07/21 11:25:06;;;;;;;7.70;4.00;;;32.50;62.40;;;;;;4824130;29;20101;-74
2022/07/21 11:27:34;;;;;;;11.02;4.20;;;32.50;62.50;;;;;;4823982;29;20579;-75
2022/07/21 11:30:05;;;;;;;10.18;3.80;;;32.30;62.20;;;;;;4823459;29;20071;-74
2022/07/21 11:32:31;;;;;;;9.75;4.45;;;32.40;62.20;;;;;;4835849;29;20018;-76
2022/07/21 11:34:59;;;;;;;9.15;3.78;;;32.70;60.60;;;;;;4823198;29;20071;-75
2022/07/21 11:37:50;;;;;;;7.38;3.88;;;32.70;60.00;;;;;;4823837;29;20034;-75
2022/07/21 11:40:18;;;;;;;9.33;4.10;;;33.00;60.40;;;;;;4820419;29;20133;-76
2022/07/21 11:42:46;;;;;;;7.80;3.75;;;33.30;59.40;;;;;;4822977;29;20263;-76
2022/07/21 11:45:13;;;;;;;7.93;3.67;;;33.10;59.00;;;;;;4819720;29;20046;-76
2022/07/21 11:47:39;;;;;;;10.70;4.00;;;32.70;60.00;;;;;;4823598;29;20622;-75
2022/07/21 11:50:08;;;;;;;9.18;4.20;;;32.80;59.30;;;;;;4817621;29;20027;-75
2022/07/21 11:52:38;;;;;;;6.97;3.92;;;32.90;58.30;;;;;;4834511;29;20038;-74
2022/07/21 11:55:06;;;;;;;6.95;3.35;;;33.00;58.70;;;;;;4837455;29;20386;-74
2022/07/21 11:57:32;;;;;;;8.02;3.38;;;32.80;59.10;;;;;;4821747;29;20027;-76
2022/07/21 11:59:58;;;;;;;8.88;3.92;;;32.70;60.20;;;;;;4822633;29;20391;-75
2022/07/21 12:02:29;;;;;;;7.68;3.47;;;32.50;58.90;;;;;;4823907;29;20022;-75
2022/07/21 12:04:56;;;;;;;12.63;4.53;;;32.90;59.50;;;;;;4833687;29;20019;-75
2022/07/21 12:07:35;;;;;;;7.88;3.55;;;33.20;59.10;;;;;;4837939;29;20037;-75
2022/07/21 12:10:06;;;;;;;5.85;3.50;;;33.00;58.30;;;;;;4824106;29;20022;-76
2022/07/21 12:12:31;;;;;;;12.45;4.03;;;33.10;57.50;;;;;;4824177;29;20054;-75
2022/07/21 12:15:09;;;;;;;11.60;3.22;;;33.00;58.00;;;;;;4818350;29;20077;-76
2022/07/21 12:17:37;;;;;;;9.85;3.92;;;32.90;56.90;;;;;;4820221;29;20054;-76
2022/07/21 12:20:05;;;;;;;9.60;3.72;;;33.10;57.90;;;;;;4823384;29;20023;-75
2022/07/21 12:22:46;;;;;;;11.23;3.75;;;32.90;57.40;;;;;;4823584;29;20107;-75
2022/07/21 12:25:13;;;;;;;9.02;3.40;;;32.80;57.70;;;;;;4822896;29;20021;-73
2022/07/21 12:27:41;;;;;;;9.07;3.42;;;32.40;57.60;;;;;;4823257;29;20030;-76
2022/07/21 12:30:09;;;;;;;11.00;3.75;;;33.00;57.50;;;;;;4822732;29;20022;-76
2022/07/21 12:32:47;;;;;;;7.72;3.53;;;33.10;56.10;;;;;;4837614;29;20057;-76
2022/07/21 12:35:25;;;;;;;9.40;3.60;;;32.90;56.50;;;;;;4835111;29;20423;-74
2022/07/21 12:38:13;;;;;;;14.10;4.88;;;32.70;56.70;;;;;;4822990;29;20029;-75
2022/07/21 12:40:42;;;;;;;9.65;4.22;;;32.80;55.80;;;;;;4820723;29;20031;-75
2022/07/21 12:43:20;;;;;;;8.95;4.18;;;32.70;57.00;;;;;;4823332;29;20038;-75
2022/07/21 12:45:56;;;;;;;10.05;3.50;;;33.00;56.80;;;;;;4820035;29;20076;-76
2022/07/21 12:48:31;;;;;;;5.93;3.30;;;33.10;55.80;;;;;;4823059;29;20127;-76
2022/07/21 12:51:11;;;;;;;9.98;3.63;;;33.30;55.50;;;;;;4823489;29;20505;-76
2022/07/21 12:53:49;;;;;;;7.03;3.90;;;33.30;53.80;;;;;;4822727;29;20030;-76
2022/07/21 12:56:17;;;;;;;8.02;3.90;;;33.30;53.90;;;;;;4821670;29;20026;-76
2022/07/21 12:58:43;;;;;;;7.10;3.60;;;33.50;54.10;;;;;;4823524;29;20034;-76
2022/07/21 13:01:10;;;;;;;8.85;3.75;;;33.50;53.70;;;;;;4821838;29;20041;-77
2022/07/21 13:03:36;;;;;;;8.70;3.55;;;33.40;53.40;;;;;;4823911;29;20038;-77
2022/07/21 13:06:05;;;;;;;11.95;3.55;;;33.50;54.00;;;;;;4823471;29;20030;-77
2022/07/21 13:08:32;;;;;;;9.50;4.15;;;33.20;53.20;;;;;;4819303;29;20491;-77
2022/07/21 13:10:58;;;;;;;12.35;4.65;;;33.30;52.90;;;;;;4834494;29;20023;-77
2022/07/21 13:13:25;;;;;;;8.48;3.58;;;33.10;54.00;;;;;;4823648;29;20026;-77
2022/07/21 13:15:51;;;;;;;6.63;3.75;;;32.80;55.00;;;;;;4822947;29;20121;-78
2022/07/21 13:18:16;;;;;;;12.02;3.97;;;32.70;55.80;;;;;;4823960;29;20437;-77
2022/07/21 13:20:43;;;;;;;7.65;3.70;;;32.80;55.30;;;;;;4827404;29;20506;-77
2022/07/21 13:23:09;;;;;;;7.75;3.92;;;33.00;55.30;;;;;;4822639;29;20030;-77
2022/07/21 13:25:35;;;;;;;10.68;3.90;;;33.00;55.10;;;;;;4823155;29;20034;-77